createdAt,value
2023-02-14T00:01:43.604Z,4.75
2023-02-14T00:04:12.856Z,5.72
2023-02-14T00:06:46.922Z,5.82
2023-02-14T00:09:19.559Z,5.75
2023-02-14T00:11:47.892Z,5.47
2023-02-14T00:14:34.902Z,6.80
2023-02-14T00:17:02.874Z,6.12
2023-02-14T00:19:34.769Z,5.82
2023-02-14T00:22:03.277Z,5.00
2023-02-14T00:24:33.362Z,5.22
2023-02-14T00:27:01.455Z,6.25
2023-02-14T00:29:31.236Z,5.00
2023-02-14T00:31:59.728Z,5.72
2023-02-14T00:34:28.006Z,5.80
2023-02-14T00:36:56.319Z,5.90
2023-02-14T00:39:25.392Z,5.68
2023-02-14T00:41:55.216Z,4.75
2023-02-14T00:44:25.540Z,6.12
2023-02-14T00:46:53.815Z,5.45
2023-02-14T00:49:24.565Z,6.97
2023-02-14T00:51:52.746Z,5.93
2023-02-14T00:54:21.548Z,6.20
2023-02-14T00:56:49.552Z,5.07
2023-02-14T00:59:19.246Z,6.50
2023-02-14T01:01:47.620Z,6.70
2023-02-14T01:04:15.647Z,6.65
2023-02-14T01:06:43.726Z,7.07
2023-02-14T01:09:12.183Z,7.75
2023-02-14T01:11:43.257Z,6.82
2023-02-14T01:14:11.599Z,7.20
2023-02-14T01:16:41.021Z,7.37
2023-02-14T01:19:10.115Z,7.78
2023-02-14T01:21:38.488Z,8.90
2023-02-14T01:24:08.790Z,7.32
2023-02-14T01:26:36.980Z,7.07
2023-02-14T01:29:06.311Z,8.45
2023-02-14T01:31:36.229Z,8.40
2023-02-14T01:34:06.029Z,8.35
2023-02-14T01:36:37.827Z,7.97
2023-02-14T01:39:08.355Z,8.27
2023-02-14T01:41:38.358Z,7.78
2023-02-14T01:44:09.776Z,8.50
2023-02-14T01:46:38.772Z,9.25
2023-02-14T01:49:12.847Z,8.52
2023-02-14T01:51:45.769Z,7.72
2023-02-14T01:54:15.897Z,6.97
2023-02-14T01:56:52.163Z,7.43
2023-02-14T01:59:23.421Z,7.70
2023-02-14T02:01:53.315Z,7.72
2023-02-14T02:04:27.186Z,7.30
2023-02-14T02:07:00.648Z,7.07
2023-02-14T02:09:34.190Z,7.32
2023-02-14T02:12:02.488Z,8.00
2023-02-14T02:14:31.619Z,7.22
2023-02-14T02:17:16.846Z,7.50
2023-02-14T02:20:04.117Z,6.93
2023-02-14T02:23:14.546Z,7.60
2023-02-14T02:26:10.382Z,7.00
2023-02-14T02:29:21.423Z,6.95
2023-02-14T02:32:19.787Z,6.57
2023-02-14T02:35:19.122Z,6.82
2023-02-14T02:38:01.386Z,6.30
2023-02-14T02:40:44.308Z,6.47
2023-02-14T02:43:23.538Z,6.18
2023-02-14T02:46:19.854Z,7.15
2023-02-14T02:48:56.023Z,6.37
2023-02-14T02:51:52.559Z,7.07
2023-02-14T02:54:30.028Z,7.50
2023-02-14T02:57:02.138Z,6.45
2023-02-14T02:59:33.080Z,7.12
2023-02-14T03:02:07.684Z,7.28
2023-02-14T03:04:53.150Z,8.00
2023-02-14T03:07:39.396Z,6.70
2023-02-14T03:10:13.340Z,7.80
2023-02-14T03:13:11.804Z,6.70
2023-02-14T03:15:52.872Z,7.03
2023-02-14T03:18:39.389Z,7.25
2023-02-14T03:21:18.950Z,6.87
2023-02-14T03:23:59.179Z,6.93
2023-02-14T03:26:34.840Z,6.97
2023-02-14T03:29:12.747Z,7.18
2023-02-14T03:31:52.311Z,7.62
2023-02-14T03:34:29.343Z,7.05
2023-02-14T03:37:02.121Z,7.00
2023-02-14T03:39:40.183Z,7.30
2023-02-14T03:42:14.032Z,8.00
2023-02-14T03:44:46.024Z,7.05
2023-02-14T03:47:17.880Z,7.20
2023-02-14T03:49:50.545Z,7.65
2023-02-14T03:52:21.387Z,7.75
2023-02-14T03:54:54.528Z,7.75
2023-02-14T03:57:26.058Z,7.10
2023-02-14T03:59:56.476Z,6.65
2023-02-14T04:02:31.515Z,5.95
2023-02-14T04:05:06.361Z,6.53
2023-02-14T04:07:45.698Z,7.70
2023-02-14T04:10:16.140Z,7.37
2023-02-14T04:12:45.327Z,7.18
2023-02-14T04:15:14.715Z,6.28
2023-02-14T04:18:00.360Z,6.60
2023-02-14T04:20:32.394Z,6.93
2023-02-14T04:23:02.377Z,6.65
2023-02-14T04:25:33.022Z,6.32
2023-02-14T04:28:01.386Z,6.28
2023-02-14T04:30:30.035Z,6.60
2023-02-14T04:32:58.743Z,7.00
2023-02-14T04:35:27.164Z,7.12
2023-02-14T04:37:56.059Z,6.55
2023-02-14T04:40:24.898Z,6.47
2023-02-14T04:42:59.917Z,7.05
2023-02-14T04:45:32.726Z,6.12
2023-02-14T04:48:05.802Z,6.50
2023-02-14T04:50:34.942Z,7.05
2023-02-14T04:53:03.647Z,6.15
2023-02-14T04:55:31.746Z,6.75
2023-02-14T04:58:01.650Z,6.32
2023-02-14T05:00:29.836Z,5.60
2023-02-14T05:02:57.905Z,6.45
2023-02-14T05:05:26.698Z,6.53
2023-02-14T05:07:54.991Z,5.35
2023-02-14T05:10:23.059Z,5.45
2023-02-14T05:12:51.289Z,5.85
2023-02-14T05:15:20.975Z,6.15
2023-02-14T05:17:48.965Z,5.00
2023-02-14T05:20:17.428Z,5.47
2023-02-14T05:22:45.479Z,6.20
2023-02-14T05:25:13.506Z,5.65
2023-02-14T05:27:41.883Z,6.45
2023-02-14T05:30:11.289Z,5.60
2023-02-14T05:32:40.780Z,6.18
2023-02-14T05:35:09.380Z,6.45
2023-02-14T05:37:37.370Z,6.47
2023-02-14T05:40:07.472Z,6.87
2023-02-14T05:42:35.874Z,6.70
2023-02-14T05:45:04.115Z,6.32
2023-02-14T05:47:32.197Z,5.35
2023-02-14T05:50:02.143Z,7.20
2023-02-14T05:52:30.306Z,6.55
2023-02-14T05:54:58.370Z,7.75
2023-02-14T05:57:26.778Z,6.15
2023-02-14T05:59:54.766Z,5.97
2023-02-14T06:02:22.881Z,5.60
2023-02-14T06:04:51.372Z,6.85
2023-02-14T06:07:20.738Z,6.40
2023-02-14T06:09:48.825Z,6.35
2023-02-14T06:12:17.283Z,6.53
2023-02-14T06:14:45.324Z,6.28
2023-02-14T06:17:13.425Z,6.22
2023-02-14T06:19:42.520Z,5.62
2023-02-14T06:22:11.015Z,6.20
2023-02-14T06:24:40.409Z,6.65
2023-02-14T06:27:08.714Z,6.65
2023-02-14T06:29:36.787Z,6.53
2023-02-14T06:32:06.848Z,6.35
2023-02-14T06:34:35.594Z,6.60
2023-02-14T06:37:03.679Z,6.35
2023-02-14T06:39:31.780Z,6.03
2023-02-14T06:42:01.505Z,6.45
2023-02-14T06:44:29.504Z,6.53
2023-02-14T06:46:57.569Z,5.93
2023-02-14T06:49:25.999Z,6.20
2023-02-14T06:51:54.052Z,6.37
2023-02-14T06:54:22.144Z,5.93
2023-02-14T06:56:50.619Z,6.93
2023-02-14T06:59:20.062Z,5.50
2023-02-14T07:01:48.160Z,5.87
2023-02-14T07:04:17.773Z,5.68
2023-02-14T07:06:46.284Z,6.37
2023-02-14T07:09:16.891Z,6.47
2023-02-14T07:11:45.563Z,5.90
2023-02-14T07:14:14.719Z,6.50
2023-02-14T07:16:44.091Z,6.95
2023-02-14T07:19:12.417Z,5.37
2023-02-14T07:21:40.474Z,5.85
2023-02-14T07:24:08.959Z,5.32
2023-02-14T07:26:37.174Z,6.35
2023-02-14T07:29:05.223Z,6.55
2023-02-14T07:31:33.410Z,6.00
2023-02-14T07:34:03.138Z,5.25
2023-02-14T07:36:31.321Z,5.60
2023-02-14T07:38:59.323Z,5.10
2023-02-14T07:41:27.618Z,5.50
2023-02-14T07:43:55.694Z,5.93
2023-02-14T07:46:23.679Z,5.57
2023-02-14T07:48:52.093Z,4.87
2023-02-14T07:51:21.557Z,5.10
2023-02-14T07:53:49.614Z,5.72
2023-02-14T07:56:17.967Z,5.10
2023-02-14T07:58:46.768Z,4.85
2023-02-14T08:01:14.797Z,5.25
2023-02-14T08:03:44.490Z,5.55
2023-02-14T08:06:12.990Z,5.68
2023-02-14T08:08:42.495Z,7.30
2023-02-14T08:11:10.861Z,5.43
2023-02-14T08:13:38.113Z,6.68
2023-02-14T08:16:06.779Z,6.25
2023-02-14T08:18:37.820Z,6.07
2023-02-14T08:21:07.755Z,6.18
2023-02-14T08:23:37.433Z,5.75
2023-02-14T08:26:07.138Z,7.03
2023-02-14T08:28:35.567Z,7.72
2023-02-14T08:31:04.929Z,6.12
2023-02-14T08:33:33.138Z,6.40
2023-02-14T08:36:01.546Z,6.72
2023-02-14T08:38:29.658Z,6.90
2023-02-14T08:41:01.532Z,7.78
2023-02-14T08:43:34.206Z,6.22
2023-02-14T08:46:02.988Z,7.53
2023-02-14T08:48:31.611Z,7.70
2023-02-14T08:50:59.941Z,7.10
2023-02-14T08:53:28.146Z,7.20
2023-02-14T08:55:56.403Z,8.10
2023-02-14T08:58:24.492Z,7.05
2023-02-14T09:00:55.704Z,7.28
2023-02-14T09:03:23.986Z,7.47
2023-02-14T09:05:52.047Z,7.53
2023-02-14T09:08:20.220Z,7.55
2023-02-14T09:10:48.577Z,7.75
2023-02-14T09:13:16.608Z,7.07
2023-02-14T09:15:44.685Z,7.75
2023-02-14T09:18:15.121Z,7.25
2023-02-14T09:20:44.349Z,7.45
2023-02-14T09:23:12.612Z,7.18
2023-02-14T09:25:41.117Z,7.28
2023-02-14T09:28:09.177Z,6.68
2023-02-14T09:30:37.772Z,7.65
2023-02-14T09:33:05.789Z,7.47
2023-02-14T09:35:52.620Z,7.28
2023-02-14T09:38:20.905Z,6.65
2023-02-14T09:40:50.537Z,7.50
2023-02-14T09:43:23.472Z,6.87
2023-02-14T09:45:56.285Z,6.57
2023-02-14T09:48:30.140Z,7.78
2023-02-14T09:51:04.132Z,5.93
2023-02-14T09:53:34.966Z,6.12
2023-02-14T09:56:10.224Z,6.50
2023-02-14T09:58:45.031Z,6.22
2023-02-14T10:01:18.601Z,6.62
2023-02-14T10:04:09.310Z,6.20
2023-02-14T10:06:49.004Z,6.37
2023-02-14T10:09:30.685Z,6.78
2023-02-14T10:12:01.748Z,7.18
2023-02-14T10:14:33.951Z,6.93
2023-02-14T10:17:08.380Z,6.57
2023-02-14T10:19:41.583Z,6.43
2023-02-14T10:22:15.591Z,5.70
2023-02-14T10:24:48.792Z,6.15
2023-02-14T10:27:30.284Z,7.43
2023-02-14T10:29:59.144Z,6.03
2023-02-14T10:32:36.482Z,7.03
2023-02-14T10:35:09.459Z,6.68
2023-02-14T10:37:53.220Z,6.95
2023-02-14T10:40:34.604Z,7.35
2023-02-14T10:43:11.632Z,6.47
2023-02-14T10:45:45.886Z,6.97
2023-02-14T10:48:24.533Z,6.87
2023-02-14T10:51:00.236Z,7.20
2023-02-14T10:53:37.920Z,6.93
2023-02-14T10:56:13.872Z,6.85
2023-02-14T10:58:43.663Z,8.18
2023-02-14T11:01:14.483Z,6.90
2023-02-14T11:03:53.572Z,6.37
2023-02-14T11:06:22.378Z,6.87
2023-02-14T11:08:51.984Z,7.37
2023-02-14T11:11:25.699Z,8.10
2023-02-14T11:13:54.285Z,7.75
2023-02-14T11:16:32.130Z,6.95
2023-02-14T11:19:11.023Z,7.70
2023-02-14T11:21:41.267Z,8.15
2023-02-14T11:24:21.266Z,8.27
2023-02-14T11:26:53.064Z,6.80
2023-02-14T11:29:29.989Z,7.87
2023-02-14T11:32:07.798Z,8.43
2023-02-14T11:34:40.213Z,7.75
2023-02-14T11:37:26.071Z,7.68
2023-02-14T11:39:58.393Z,7.50
2023-02-14T11:42:42.107Z,7.40
2023-02-14T11:45:28.306Z,7.45
2023-02-14T11:48:11.181Z,7.80
2023-02-14T11:50:40.469Z,8.05
2023-02-14T11:53:13.385Z,6.95
2023-02-14T11:55:49.062Z,7.45
2023-02-14T11:58:32.363Z,7.28
2023-02-14T12:01:02.217Z,8.13
2023-02-14T12:03:36.921Z,7.78
2023-02-14T12:06:06.005Z,7.82
2023-02-14T12:08:37.583Z,7.35
2023-02-14T12:11:20.163Z,6.87
2023-02-14T12:13:54.072Z,7.30
2023-02-14T12:16:29.731Z,8.18
2023-02-14T12:19:03.758Z,7.20
2023-02-14T12:21:48.106Z,7.53
2023-02-14T12:24:27.754Z,7.87
2023-02-14T12:27:06.165Z,8.75
2023-02-14T12:29:39.957Z,8.55
2023-02-14T12:32:18.512Z,8.18
2023-02-14T12:34:46.868Z,8.60
2023-02-14T12:37:21.068Z,8.20
2023-02-14T12:40:08.086Z,8.57
2023-02-14T12:43:01.627Z,7.62
2023-02-14T12:45:48.655Z,8.70
2023-02-14T12:48:30.008Z,7.53
2023-02-14T12:51:07.509Z,8.45
2023-02-14T12:53:49.026Z,7.97
2023-02-14T12:56:29.244Z,8.07
2023-02-14T12:59:07.948Z,8.75
2023-02-14T13:02:06.010Z,8.70
2023-02-14T13:04:46.706Z,8.10
2023-02-14T13:07:24.849Z,7.57
2023-02-14T13:10:00.897Z,7.90
2023-02-14T13:12:36.272Z,7.45
2023-02-14T13:15:25.741Z,7.90
2023-02-14T13:18:00.880Z,7.97
2023-02-14T13:20:40.065Z,7.80
2023-02-14T13:23:14.841Z,8.73
2023-02-14T13:25:49.914Z,8.43
2023-02-14T13:28:19.798Z,7.62
2023-02-14T13:30:49.244Z,8.35
2023-02-14T13:33:28.174Z,8.25
2023-02-14T13:36:01.024Z,7.70
2023-02-14T13:38:31.663Z,8.65
2023-02-14T13:41:03.579Z,8.43
2023-02-14T13:43:50.078Z,7.95
2023-02-14T13:46:22.208Z,8.43
2023-02-14T13:49:02.123Z,7.62
2023-02-14T13:51:48.268Z,7.85
2023-02-14T13:54:31.078Z,8.52
2023-02-14T13:57:00.861Z,8.65
2023-02-14T13:59:32.193Z,7.68
2023-02-14T14:02:33.827Z,8.23
2023-02-14T14:05:02.160Z,7.45
2023-02-14T14:07:31.347Z,8.90
2023-02-14T14:10:02.889Z,8.65
2023-02-14T14:12:47.568Z,8.10
2023-02-14T14:15:20.613Z,7.93
2023-02-14T14:18:29.800Z,7.68
2023-02-14T14:20:58.517Z,8.48
2023-02-14T14:23:32.070Z,7.65
2023-02-14T14:26:02.080Z,7.53
2023-02-14T14:28:34.257Z,9.27
2023-02-14T14:31:02.461Z,8.68
2023-02-14T14:33:33.669Z,7.82
2023-02-14T14:36:07.352Z,7.07
2023-02-14T14:38:48.024Z,7.75
2023-02-14T14:41:16.267Z,7.35
2023-02-14T14:43:45.002Z,7.65
2023-02-14T14:46:15.955Z,7.87
2023-02-14T14:48:49.571Z,6.80
2023-02-14T14:51:25.132Z,7.07
2023-02-14T14:53:57.169Z,7.43
2023-02-14T14:56:27.506Z,7.82
2023-02-14T14:58:56.387Z,8.18
2023-02-14T15:01:33.489Z,6.65
2023-02-14T15:04:26.243Z,6.40
2023-02-14T15:06:56.529Z,7.65
2023-02-14T15:09:32.028Z,8.02
2023-02-14T15:12:20.535Z,7.95
2023-02-14T15:14:54.688Z,6.78
2023-02-14T15:17:26.235Z,7.68
2023-02-14T15:19:59.215Z,6.93
2023-02-14T15:22:29.656Z,6.97
2023-02-14T15:24:59.587Z,7.28
2023-02-14T15:27:31.736Z,6.72
2023-02-14T15:30:02.277Z,6.97
2023-02-14T15:32:33.868Z,6.60
2023-02-14T15:35:05.986Z,7.20
2023-02-14T15:37:34.631Z,7.25
2023-02-14T15:40:06.161Z,7.18
2023-02-14T15:42:42.248Z,6.62
2023-02-14T15:45:19.351Z,6.78
2023-02-14T15:47:50.510Z,7.07
2023-02-14T15:50:24.268Z,7.20
2023-02-14T15:52:53.845Z,6.15
2023-02-14T15:55:26.523Z,6.43
2023-02-14T15:58:03.583Z,7.20
2023-02-14T16:00:34.657Z,6.65
2023-02-14T16:03:07.533Z,7.15
2023-02-14T16:05:36.944Z,6.75
2023-02-14T16:08:07.895Z,7.37
2023-02-14T16:10:38.189Z,6.57
2023-02-14T16:13:09.673Z,6.45
2023-02-14T16:15:42.115Z,5.95
2023-02-14T16:18:19.104Z,6.78
2023-02-14T16:20:51.213Z,7.22
2023-02-14T16:23:26.175Z,6.55
2023-02-14T16:25:57.237Z,7.18
2023-02-14T16:28:30.268Z,7.22
2023-02-14T16:31:00.797Z,7.22
2023-02-14T16:33:32.043Z,7.55
2023-02-14T16:36:06.482Z,6.78
2023-02-14T16:38:41.391Z,6.20
2023-02-14T16:41:16.355Z,5.93
2023-02-14T16:43:44.728Z,6.15
2023-02-14T16:46:14.199Z,6.87
2023-02-14T16:48:43.038Z,6.47
2023-02-14T16:51:13.855Z,6.93
2023-02-14T16:53:43.227Z,7.07
2023-02-14T16:56:18.002Z,7.68
2023-02-14T16:58:47.038Z,7.40
2023-02-14T17:01:16.071Z,7.85
2023-02-14T17:03:44.647Z,6.82
2023-02-14T17:06:20.015Z,7.22
2023-02-14T17:08:51.777Z,7.10
2023-02-14T17:11:20.775Z,7.12
2023-02-14T17:13:49.685Z,7.97
2023-02-14T17:16:18.574Z,8.60
2023-02-14T17:18:49.376Z,8.15
2023-02-14T17:21:22.863Z,9.15
2023-02-14T17:23:51.175Z,7.47
2023-02-14T17:26:19.952Z,8.38
2023-02-14T17:28:48.001Z,7.60
2023-02-14T17:31:16.250Z,7.72
2023-02-14T17:33:44.695Z,9.25
2023-02-14T17:36:14.736Z,7.87
2023-02-14T17:38:44.900Z,8.65
2023-02-14T17:41:15.292Z,7.07
2023-02-14T17:43:43.882Z,8.60
2023-02-14T17:46:14.205Z,8.80
2023-02-14T17:48:45.394Z,9.27
2023-02-14T17:51:16.209Z,8.45
2023-02-14T17:53:46.033Z,8.50
2023-02-14T17:56:15.459Z,8.30
2023-02-14T17:58:43.580Z,8.90
2023-02-14T18:01:13.257Z,8.30
2023-02-14T18:03:41.847Z,8.85
2023-02-14T18:06:12.028Z,8.55
2023-02-14T18:08:42.443Z,8.90
2023-02-14T18:11:14.011Z,9.00
2023-02-14T18:13:42.421Z,8.55
2023-02-14T18:16:12.436Z,8.90
2023-02-14T18:18:40.803Z,9.30
2023-02-14T18:21:10.825Z,8.23
2023-02-14T18:23:39.832Z,8.82
2023-02-14T18:26:11.975Z,8.75
2023-02-14T18:28:41.733Z,8.68
2023-02-14T18:31:12.027Z,8.48
2023-02-14T18:33:40.689Z,8.10
2023-02-14T18:36:12.075Z,8.35
2023-02-14T18:38:41.276Z,8.52
2023-02-14T18:41:11.975Z,8.43
2023-02-14T18:43:42.444Z,8.60
2023-02-14T18:46:12.264Z,7.90
2023-02-14T18:48:41.651Z,8.27
2023-02-14T18:51:10.962Z,7.72
2023-02-14T18:53:40.192Z,8.40
2023-02-14T18:56:11.658Z,9.00
2023-02-14T18:58:42.771Z,8.88
2023-02-14T19:01:11.918Z,9.75
2023-02-14T19:03:40.798Z,8.30
2023-02-14T19:06:10.103Z,9.18
2023-02-14T19:08:40.246Z,8.60
2023-02-14T19:11:11.636Z,9.93
2023-02-14T19:13:45.873Z,9.73
2023-02-14T19:16:16.508Z,10.40
2023-02-14T19:18:45.181Z,10.82
2023-02-14T19:21:14.276Z,11.43
2023-02-14T19:23:43.010Z,10.40
2023-02-14T19:26:13.008Z,9.93
2023-02-14T19:28:43.153Z,9.90
2023-02-14T19:31:12.294Z,10.30
2023-02-14T19:33:41.680Z,10.98
2023-02-14T19:36:13.792Z,10.30
2023-02-14T19:38:43.651Z,9.90
2023-02-14T19:41:16.676Z,9.88
2023-02-14T19:43:47.626Z,9.50
2023-02-14T19:46:17.107Z,9.90
2023-02-14T19:48:46.000Z,9.52
2023-02-14T19:51:17.210Z,9.35
2023-02-14T19:53:46.583Z,11.07
2023-02-14T19:56:19.997Z,9.48
2023-02-14T19:58:50.997Z,9.65
2023-02-14T20:01:25.821Z,8.85
2023-02-14T20:03:54.989Z,10.02
2023-02-14T20:06:24.309Z,8.73
2023-02-14T20:08:53.055Z,8.57
2023-02-14T20:11:30.284Z,9.57
2023-02-14T20:14:00.418Z,9.23
2023-02-14T20:16:30.569Z,9.40
2023-02-14T20:19:02.428Z,9.48
2023-02-14T20:21:30.703Z,9.95
2023-02-14T20:24:00.961Z,8.65
2023-02-14T20:26:29.464Z,9.00
2023-02-14T20:29:03.739Z,9.15
2023-02-14T20:31:32.991Z,9.18
2023-02-14T20:34:01.492Z,10.07
2023-02-14T20:36:29.957Z,10.75
2023-02-14T20:38:59.069Z,9.60
2023-02-14T20:41:28.783Z,9.45
2023-02-14T20:44:03.996Z,9.23
2023-02-14T20:46:35.074Z,9.23
2023-02-14T20:49:03.908Z,9.30
2023-02-14T20:51:32.264Z,9.40
2023-02-14T20:54:00.469Z,10.15
2023-02-14T20:56:28.528Z,9.82
2023-02-14T20:58:56.580Z,8.68
2023-02-14T21:01:25.683Z,10.38
2023-02-14T21:03:55.506Z,9.45
2023-02-14T21:06:28.582Z,10.68
2023-02-14T21:08:57.277Z,8.63
2023-02-14T21:11:26.775Z,9.05
2023-02-14T21:13:55.472Z,10.00
2023-02-14T21:16:24.791Z,10.43
2023-02-14T21:18:59.360Z,9.18
2023-02-14T21:21:32.643Z,9.85
2023-02-14T21:24:02.542Z,9.27
2023-02-14T21:26:31.038Z,9.00
2023-02-14T21:28:59.313Z,10.40
2023-02-14T21:31:27.504Z,9.63
2023-02-14T21:33:58.728Z,9.57
2023-02-14T21:36:28.889Z,9.73
2023-02-14T21:38:58.866Z,10.55
2023-02-14T21:41:28.807Z,9.52
2023-02-14T21:43:58.819Z,9.00
2023-02-14T21:46:29.342Z,9.77
2023-02-14T21:49:18.080Z,10.98
2023-02-14T21:51:46.987Z,9.75
2023-02-14T21:54:16.444Z,10.07
2023-02-14T21:56:44.938Z,9.25
2023-02-14T21:59:13.428Z,9.90
2023-02-14T22:01:43.531Z,9.73
2023-02-14T22:04:14.020Z,9.32
2023-02-14T22:06:43.580Z,10.18
2023-02-14T22:09:14.259Z,11.43
2023-02-14T22:11:42.786Z,9.95
2023-02-14T22:14:11.249Z,8.80
2023-02-14T22:16:39.617Z,10.38
2023-02-14T22:19:09.435Z,9.45
2023-02-14T22:21:38.942Z,9.30
2023-02-14T22:24:07.557Z,10.30
2023-02-14T22:26:38.790Z,9.80
2023-02-14T22:29:07.805Z,9.60
2023-02-14T22:31:38.898Z,9.90
2023-02-14T22:34:09.472Z,10.60
2023-02-14T22:36:39.406Z,9.30
2023-02-14T22:39:07.891Z,10.15
2023-02-14T22:41:37.941Z,10.95
2023-02-14T22:44:07.288Z,9.82
2023-02-14T22:46:37.818Z,10.23
2023-02-14T22:49:06.831Z,11.00
2023-02-14T22:51:36.616Z,9.57
2023-02-14T22:54:08.589Z,10.63
2023-02-14T22:56:39.100Z,9.65
2023-02-14T22:59:08.635Z,10.20
2023-02-14T23:01:37.258Z,10.85
2023-02-14T23:04:06.557Z,9.52
2023-02-14T23:06:36.354Z,9.75
2023-02-14T23:09:11.295Z,9.73
2023-02-14T23:11:41.126Z,9.90
2023-02-14T23:14:29.147Z,9.52
2023-02-14T23:17:20.484Z,9.50
2023-02-14T23:20:06.787Z,9.00
2023-02-14T23:22:37.515Z,9.23
2023-02-14T23:25:10.134Z,11.50
2023-02-14T23:27:40.916Z,10.07
2023-02-14T23:30:14.809Z,9.02
2023-02-14T23:32:43.251Z,9.52
2023-02-14T23:35:11.991Z,10.68
2023-02-14T23:37:40.057Z,9.50
2023-02-14T23:40:10.802Z,10.27
2023-02-14T23:42:39.382Z,10.02
2023-02-14T23:45:26.215Z,10.32
2023-02-14T23:47:54.496Z,9.77
2023-02-14T23:50:22.596Z,9.13
2023-02-14T23:52:50.746Z,8.77
2023-02-14T23:55:20.457Z,10.70
2023-02-14T23:57:48.439Z,9.90
